Terminal Aerodrome Forecast
Issued by NWS

Home | Current Version | Previous Version | Text Only | Print | Product List | Glossary On
Versions: 1 2 3 4 5 6 7 8 9 10 11 12 13
000
FTUS42 TJSJ 261133
TAFISX
TAF
TISX 261133Z 2612/2712 15005KT P6SM SCT019
     FM261300 14011KT P6SM SCT025
     FM262300 14005KT P6SM FEW021=

USA.gov is the U.S. government's official web portal to all federal, state and local government web resources and services.